Time;durP1;ratioP1;P1;durP2;ratioP2;P2;SDS_P1;SDS_P2;PMS_P1;PMS_P2;Temp;Humidity;BMP_temperature;BMP_pressure;BME280_temperature;BME280_humidity;BME280_pressure;Samples;Min_cycle;Max_cycle;Signal;HPM_P1;HPM_P2
2022/09/21 00:01:37;;;;;;;4.00;2.00;;;;;;;;;;105820;1307;33083;-32
2022/09/21 00:04:06;;;;;;;4.40;2.10;;;;;;;;;;105871;1310;33142;-32
2022/09/21 00:06:36;;;;;;;4.00;2.10;;;;;;;;;;105865;1303;34241;-32
2022/09/21 00:09:07;;;;;;;4.40;2.10;;;;;;;;;;105879;1304;33856;-32
2022/09/21 00:11:36;;;;;;;4.60;2.00;;;;;;;;;;105853;1304;34018;-32
2022/09/21 00:14:07;;;;;;;4.90;2.40;;;;;;;;;;105922;1306;33412;-32
2022/09/21 00:16:37;;;;;;;4.10;2.30;;;;;;;;;;105913;1304;33179;-32
2022/09/21 00:19:06;;;;;;;4.30;2.00;;;;;;;;;;105911;1308;33708;-32
2022/09/21 00:21:39;;;;;;;4.00;1.90;;;;;;;;;;105875;1304;33996;-32
2022/09/21 00:24:08;;;;;;;5.00;1.90;;;;;;;;;;105850;1303;33457;-32
2022/09/21 00:26:37;;;;;;;3.70;2.00;;;;;;;;;;105865;1306;33950;-32
2022/09/21 00:29:07;;;;;;;3.70;2.00;;;;;;;;;;105867;1304;33832;-32
2022/09/21 00:31:38;;;;;;;4.00;2.10;;;;;;;;;;105882;1306;33975;-32
2022/09/21 00:34:07;;;;;;;3.90;1.90;;;;;;;;;;105945;1302;33544;-32
2022/09/21 00:36:36;;;;;;;4.90;2.00;;;;;;;;;;105903;1304;33811;-32
2022/09/21 00:39:05;;;;;;;4.00;1.90;;;;;;;;;;105915;1304;33957;-32
2022/09/21 00:41:35;;;;;;;3.80;2.10;;;;;;;;;;105849;1303;33844;-31
2022/09/21 00:44:27;;;;;;;4.20;1.90;;;;;;;;;;105869;1310;33575;-32
2022/09/21 00:46:58;;;;;;;4.80;2.00;;;;;;;;;;105878;1304;33819;-32
2022/09/21 00:49:27;;;;;;;4.00;1.80;;;;;;;;;;105825;1304;34135;-32
2022/09/21 00:51:58;;;;;;;4.40;2.00;;;;;;;;;;105827;1308;33366;-32
2022/09/21 00:54:30;;;;;;;4.50;2.30;;;;;;;;;;105841;1304;33901;-32
2022/09/21 00:57:01;;;;;;;4.40;2.10;;;;;;;;;;105861;1306;33362;-32
2022/09/21 00:59:32;;;;;;;4.40;2.20;;;;;;;;;;105840;1304;33454;-32
2022/09/21 01:02:01;;;;;;;4.20;2.20;;;;;;;;;;105797;1304;34060;-32
2022/09/21 01:04:30;;;;;;;4.00;1.80;;;;;;;;;;105829;1299;33929;-32
2022/09/21 01:07:04;;;;;;;3.90;2.10;;;;;;;;;;105872;1307;33830;-32
2022/09/21 01:09:34;;;;;;;4.20;2.00;;;;;;;;;;105845;1308;33460;-32
2022/09/21 01:12:12;;;;;;;4.00;2.10;;;;;;;;;;105809;1306;33467;-31
2022/09/21 01:14:52;;;;;;;4.50;2.10;;;;;;;;;;105828;1303;33834;-32
2022/09/21 01:17:28;;;;;;;3.70;2.10;;;;;;;;;;105824;1310;34389;-31
2022/09/21 01:20:20;;;;;;;4.00;2.10;;;;;;;;;;105829;1310;33824;-32
2022/09/21 01:22:58;;;;;;;4.40;2.10;;;;;;;;;;105791;1304;33660;-32
2022/09/21 01:25:35;;;;;;;4.40;2.10;;;;;;;;;;105850;1305;34381;-32
2022/09/21 01:28:19;;;;;;;4.10;2.10;;;;;;;;;;105836;1306;34110;-32
2022/09/21 01:30:49;;;;;;;4.10;2.30;;;;;;;;;;105812;1304;33916;-32
2022/09/21 01:33:21;;;;;;;4.10;2.20;;;;;;;;;;105810;1303;34355;-32
2022/09/21 01:35:54;;;;;;;3.90;2.00;;;;;;;;;;105838;1304;33980;-32
2022/09/21 01:38:25;;;;;;;4.20;2.20;;;;;;;;;;105814;1307;35353;-32
2022/09/21 01:40:59;;;;;;;3.90;2.00;;;;;;;;;;105838;1306;33410;-32
2022/09/21 01:43:31;;;;;;;4.90;1.90;;;;;;;;;;105823;1304;33593;-32
2022/09/21 01:46:02;;;;;;;4.00;2.00;;;;;;;;;;105861;1307;33134;-32
2022/09/21 01:48:34;;;;;;;3.90;2.00;;;;;;;;;;105850;1304;33096;-32
2022/09/21 01:51:05;;;;;;;3.70;2.00;;;;;;;;;;105861;1304;34004;-32
2022/09/21 01:53:39;;;;;;;4.00;2.00;;;;;;;;;;105861;1307;33540;-32
2022/09/21 01:56:11;;;;;;;4.50;2.20;;;;;;;;;;105932;1303;33943;-32
2022/09/21 01:58:42;;;;;;;4.30;2.00;;;;;;;;;;105916;1305;34201;-32
2022/09/21 02:01:14;;;;;;;4.20;2.10;;;;;;;;;;105919;1306;33960;-32
2022/09/21 02:03:45;;;;;;;4.00;1.90;;;;;;;;;;105821;1304;33969;-32
2022/09/21 02:06:14;;;;;;;3.90;2.10;;;;;;;;;;105833;1306;33789;-32
2022/09/21 02:08:47;;;;;;;4.10;2.00;;;;;;;;;;105895;1304;33724;-32
2022/09/21 02:11:16;;;;;;;4.10;1.90;;;;;;;;;;105827;1304;33448;-32
2022/09/21 02:13:46;;;;;;;3.80;2.00;;;;;;;;;;105895;1307;33955;-32
2022/09/21 02:16:23;;;;;;;4.20;2.30;;;;;;;;;;105910;1308;33501;-32
2022/09/21 02:18:58;;;;;;;3.90;2.00;;;;;;;;;;105914;1304;33840;-32
2022/09/21 02:21:30;;;;;;;3.80;2.00;;;;;;;;;;105889;1304;33584;-32
2022/09/21 02:24:03;;;;;;;4.10;2.20;;;;;;;;;;105837;1304;34460;-32
2022/09/21 02:26:31;;;;;;;;;;;;;;;;;;105863;1304;33076;-32
2022/09/21 02:29:06;;;;;;;4.00;2.10;;;;;;;;;;105844;1307;33743;-32
2022/09/21 02:31:37;;;;;;;4.60;2.20;;;;;;;;;;105879;1307;32805;-32
2022/09/21 02:34:13;;;;;;;4.30;2.30;;;;;;;;;;105915;1307;33559;-32
2022/09/21 02:36:45;;;;;;;3.90;2.30;;;;;;;;;;105934;1310;33599;-32
2022/09/21 02:39:17;;;;;;;4.70;2.20;;;;;;;;;;105913;1307;33557;-32
2022/09/21 02:41:52;;;;;;;4.50;2.50;;;;;;;;;;105912;1305;34338;-32
2022/09/21 02:44:24;;;;;;;4.10;2.10;;;;;;;;;;105858;1301;33836;-32
2022/09/21 02:46:54;;;;;;;4.50;2.40;;;;;;;;;;105853;1304;33892;-32
2022/09/21 02:49:26;;;;;;;4.10;2.40;;;;;;;;;;105892;1304;33179;-32
2022/09/21 02:51:58;;;;;;;4.60;2.50;;;;;;;;;;105872;1308;33591;-32
2022/09/21 02:54:30;;;;;;;6.50;2.40;;;;;;;;;;105895;1305;33293;-32
2022/09/21 02:57:01;;;;;;;4.20;2.40;;;;;;;;;;105776;1305;159259;-32
2022/09/21 02:59:31;;;;;;;4.20;2.40;;;;;;;;;;105862;1305;33858;-32
2022/09/21 03:02:00;;;;;;;4.00;2.20;;;;;;;;;;105918;1306;33326;-32
2022/09/21 03:04:29;;;;;;;4.40;2.30;;;;;;;;;;105831;1305;34026;-31
2022/09/21 03:07:00;;;;;;;4.30;2.60;;;;;;;;;;105865;1305;33503;-31
2022/09/21 03:09:29;;;;;;;4.70;2.60;;;;;;;;;;105846;1307;33133;-32
2022/09/21 03:11:59;;;;;;;4.50;2.40;;;;;;;;;;105854;1304;33805;-31
2022/09/21 03:14:28;;;;;;;4.40;2.60;;;;;;;;;;105923;1305;33916;-32
2022/09/21 03:16:57;;;;;;;4.40;2.40;;;;;;;;;;105936;1303;33765;-32
2022/09/21 03:19:27;;;;;;;5.20;2.50;;;;;;;;;;105941;1304;33495;-32
2022/09/21 03:21:56;;;;;;;4.20;2.40;;;;;;;;;;105909;1306;33582;-32
2022/09/21 03:27:11;;;;;;;4.60;2.70;;;;;;;;;;105870;1304;33913;-32
2022/09/21 03:29:41;;;;;;;4.10;2.50;;;;;;;;;;105837;1307;33767;-32
2022/09/21 03:32:11;;;;;;;5.00;2.40;;;;;;;;;;105878;1305;33836;-32
2022/09/21 03:34:40;;;;;;;4.30;2.50;;;;;;;;;;105845;1307;34071;-32
2022/09/21 03:37:10;;;;;;;4.30;2.50;;;;;;;;;;105924;1302;33089;-32
2022/09/21 03:39:39;;;;;;;4.50;2.60;;;;;;;;;;105918;1306;34197;-32
2022/09/21 03:42:09;;;;;;;4.50;2.40;;;;;;;;;;105899;1307;33826;-32
2022/09/21 03:44:38;;;;;;;4.10;2.30;;;;;;;;;;105867;1307;33811;-32
2022/09/21 03:47:07;;;;;;;4.80;2.60;;;;;;;;;;105880;1309;33587;-32
2022/09/21 03:49:37;;;;;;;4.30;2.30;;;;;;;;;;105864;1308;33468;-32
2022/09/21 03:52:06;;;;;;;4.20;2.30;;;;;;;;;;105892;1305;34297;-32
2022/09/21 03:54:35;;;;;;;3.90;2.30;;;;;;;;;;105865;1304;34284;-31
2022/09/21 03:57:04;;;;;;;4.90;2.50;;;;;;;;;;105905;1304;33827;-32
2022/09/21 03:59:34;;;;;;;3.80;2.10;;;;;;;;;;105914;1304;33886;-32
2022/09/21 04:02:03;;;;;;;4.40;2.40;;;;;;;;;;105931;1309;33645;-31
2022/09/21 04:04:32;;;;;;;4.60;2.60;;;;;;;;;;105834;1309;33761;-32
2022/09/21 04:07:01;;;;;;;4.10;2.50;;;;;;;;;;105880;1304;34089;-32
2022/09/21 04:09:33;;;;;;;4.70;2.80;;;;;;;;;;105873;1308;31867;-32
2022/09/21 04:12:03;;;;;;;4.00;2.40;;;;;;;;;;105894;1308;33817;-32
2022/09/21 04:14:32;;;;;;;4.20;2.40;;;;;;;;;;105874;1310;34035;-32
2022/09/21 04:17:01;;;;;;;4.30;2.40;;;;;;;;;;105968;1310;33689;-32
2022/09/21 04:19:30;;;;;;;4.70;2.40;;;;;;;;;;105950;1305;33942;-32
2022/09/21 04:22:01;;;;;;;4.30;2.40;;;;;;;;;;105943;1309;33731;-32
2022/09/21 04:24:30;;;;;;;4.60;2.40;;;;;;;;;;105875;1306;33953;-32
2022/09/21 04:26:59;;;;;;;4.90;2.40;;;;;;;;;;105835;1304;34256;-32
2022/09/21 04:29:28;;;;;;;4.70;2.20;;;;;;;;;;105865;1308;33458;-32
2022/09/21 04:31:58;;;;;;;3.90;2.30;;;;;;;;;;105859;1310;33972;-32
2022/09/21 04:34:27;;;;;;;4.30;2.40;;;;;;;;;;105852;1310;33441;-32
2022/09/21 04:36:56;;;;;;;3.90;2.30;;;;;;;;;;105874;1310;33846;-32
2022/09/21 04:39:25;;;;;;;3.90;2.00;;;;;;;;;;105890;1308;33470;-32
2022/09/21 04:41:54;;;;;;;4.20;2.10;;;;;;;;;;105908;1302;34871;-32
2022/09/21 04:44:24;;;;;;;4.70;2.30;;;;;;;;;;105895;1306;33830;-31
2022/09/21 04:46:53;;;;;;;3.70;1.90;;;;;;;;;;105839;1304;34095;-32
2022/09/21 04:49:22;;;;;;;3.60;2.00;;;;;;;;;;105710;1304;32221;-31
2022/09/21 04:51:51;;;;;;;3.90;2.00;;;;;;;;;;105867;1308;33843;-32
2022/09/21 04:54:21;;;;;;;3.70;1.90;;;;;;;;;;105859;1310;33534;-32
2022/09/21 04:56:50;;;;;;;3.70;1.90;;;;;;;;;;105848;1307;33504;-32
2022/09/21 04:59:19;;;;;;;3.90;2.00;;;;;;;;;;105923;1307;34238;-32
2022/09/21 05:01:47;;;;;;;3.60;2.00;;;;;;;;;;105914;1305;33119;-32
2022/09/21 05:04:18;;;;;;;3.90;2.10;;;;;;;;;;105922;1305;33967;-32
2022/09/21 05:06:47;;;;;;;4.10;2.00;;;;;;;;;;105844;1306;33965;-32
2022/09/21 05:12:06;;;;;;;4.20;1.90;;;;;;;;;;105853;1307;33413;-32
2022/09/21 05:14:35;;;;;;;3.60;2.00;;;;;;;;;;105882;1308;33949;-32
2022/09/21 05:17:05;;;;;;;3.70;2.00;;;;;;;;;;105921;1307;33821;-32
2022/09/21 05:19:34;;;;;;;3.30;1.90;;;;;;;;;;105897;1310;33992;-31
2022/09/21 05:22:03;;;;;;;3.60;1.90;;;;;;;;;;105928;1307;33444;-32
2022/09/21 05:24:32;;;;;;;3.60;1.90;;;;;;;;;;105915;1304;33613;-32
2022/09/21 05:27:01;;;;;;;3.60;1.90;;;;;;;;;;105812;1305;33841;-32
2022/09/21 05:29:31;;;;;;;4.20;2.10;;;;;;;;;;105876;1307;33487;-32
2022/09/21 05:32:05;;;;;;;3.60;1.90;;;;;;;;;;105884;1303;33846;-32
2022/09/21 05:34:45;;;;;;;3.70;1.90;;;;;;;;;;105878;1304;33938;-32
2022/09/21 05:37:20;;;;;;;3.60;1.90;;;;;;;;;;105877;1304;33485;-32
2022/09/21 05:39:50;;;;;;;3.50;1.90;;;;;;;;;;105931;1305;33907;-32
2022/09/21 05:42:20;;;;;;;3.40;1.90;;;;;;;;;;105927;1308;35772;-31
2022/09/21 05:44:52;;;;;;;4.10;1.90;;;;;;;;;;105899;1305;33951;-32
2022/09/21 05:47:25;;;;;;;3.80;2.00;;;;;;;;;;105878;1307;34067;-32
2022/09/21 05:49:59;;;;;;;3.50;1.80;;;;;;;;;;105902;1310;33643;-31
2022/09/21 05:52:32;;;;;;;4.10;2.00;;;;;;;;;;105877;1304;33825;-32
2022/09/21 05:55:07;;;;;;;4.80;2.30;;;;;;;;;;105884;1304;33865;-32
2022/09/21 05:57:44;;;;;;;4.20;2.10;;;;;;;;;;105892;1305;34215;-32
2022/09/21 06:00:17;;;;;;;3.60;2.20;;;;;;;;;;105950;1308;33663;-32
2022/09/21 06:02:54;;;;;;;4.00;2.30;;;;;;;;;;105915;1310;33335;-32
2022/09/21 06:05:27;;;;;;;4.40;2.00;;;;;;;;;;105929;1307;33418;-32
2022/09/21 06:07:56;;;;;;;3.80;2.10;;;;;;;;;;105885;1307;34212;-32
2022/09/21 06:10:26;;;;;;;4.40;2.00;;;;;;;;;;105855;1305;34126;-32
2022/09/21 06:12:55;;;;;;;4.50;2.40;;;;;;;;;;105890;1304;33964;-32
2022/09/21 06:15:24;;;;;;;4.00;2.00;;;;;;;;;;105880;1309;33860;-32
2022/09/21 06:17:54;;;;;;;4.10;1.90;;;;;;;;;;105879;1307;33427;-32
2022/09/21 06:20:24;;;;;;;3.80;2.10;;;;;;;;;;105940;1302;34246;-32
2022/09/21 06:22:53;;;;;;;4.90;2.70;;;;;;;;;;105934;1305;33791;-31
2022/09/21 06:25:23;;;;;;;5.30;2.60;;;;;;;;;;105881;1306;34159;-30
2022/09/21 06:27:52;;;;;;;4.40;2.30;;;;;;;;;;105832;1304;33970;-30
2022/09/21 06:30:21;;;;;;;4.20;2.50;;;;;;;;;;105845;1310;33675;-30
2022/09/21 06:32:50;;;;;;;4.40;2.50;;;;;;;;;;105826;1307;33332;-30
2022/09/21 06:35:19;;;;;;;6.60;2.50;;;;;;;;;;105844;1307;33559;-30
2022/09/21 06:37:48;;;;;;;4.80;2.30;;;;;;;;;;105840;1304;33838;-30
2022/09/21 06:40:17;;;;;;;5.50;2.50;;;;;;;;;;105890;1303;33845;-30
2022/09/21 06:42:46;;;;;;;5.30;2.40;;;;;;;;;;105882;1308;33840;-32
2022/09/21 06:45:15;;;;;;;4.90;2.40;;;;;;;;;;105895;1306;33836;-32
2022/09/21 06:47:47;;;;;;;5.00;2.40;;;;;;;;;;105854;1304;33408;-32
2022/09/21 06:50:16;;;;;;;4.90;2.50;;;;;;;;;;105901;1303;34148;-32
2022/09/21 06:52:45;;;;;;;5.80;2.20;;;;;;;;;;105871;1304;33810;-32
2022/09/21 06:55:17;;;;;;;6.10;2.00;;;;;;;;;;105862;1304;34357;-32
2022/09/21 06:57:46;;;;;;;5.10;2.10;;;;;;;;;;105842;1307;33881;-32
2022/09/21 07:00:17;;;;;;;4.30;2.20;;;;;;;;;;105953;1304;33965;-32
2022/09/21 07:02:46;;;;;;;4.20;2.30;;;;;;;;;;105891;1305;33965;-32
2022/09/21 07:05:15;;;;;;;4.50;2.50;;;;;;;;;;105996;1309;33484;-32
2022/09/21 07:07:44;;;;;;;4.60;2.10;;;;;;;;;;106184;1305;33832;-32
2022/09/21 07:10:13;;;;;;;3.90;2.10;;;;;;;;;;106107;1303;33086;-32
2022/09/21 07:12:43;;;;;;;4.00;2.20;;;;;;;;;;106179;1307;33210;-32
2022/09/21 07:15:14;;;;;;;5.30;2.20;;;;;;;;;;106225;1304;33413;-32
2022/09/21 07:17:43;;;;;;;5.70;2.20;;;;;;;;;;106135;1304;33936;-32
2022/09/21 07:20:13;;;;;;;4.90;2.20;;;;;;;;;;105882;1308;33372;-32
2022/09/21 07:22:42;;;;;;;4.40;2.30;;;;;;;;;;105846;1307;33956;-32
2022/09/21 07:25:11;;;;;;;4.70;2.30;;;;;;;;;;105808;1306;34400;-32
2022/09/21 07:27:40;;;;;;;4.60;2.10;;;;;;;;;;105822;1304;34346;-32
2022/09/21 07:30:10;;;;;;;4.30;2.10;;;;;;;;;;105626;1306;34025;-32
2022/09/21 07:32:39;;;;;;;5.00;2.10;;;;;;;;;;105645;1307;34215;-32
2022/09/21 07:35:09;;;;;;;3.90;2.20;;;;;;;;;;105646;1304;34643;-32
2022/09/21 07:37:38;;;;;;;4.20;2.00;;;;;;;;;;105652;1308;33935;-32
2022/09/21 07:40:09;;;;;;;5.50;2.50;;;;;;;;;;105780;1304;33527;-32
2022/09/21 07:42:38;;;;;;;4.40;2.20;;;;;;;;;;105997;1311;31892;-32
2022/09/21 07:45:08;;;;;;;4.10;2.00;;;;;;;;;;106063;1311;33799;-32
2022/09/21 07:47:37;;;;;;;4.90;1.80;;;;;;;;;;106107;1303;33565;-32
2022/09/21 07:50:07;;;;;;;3.90;1.90;;;;;;;;;;105887;1311;32537;-32
2022/09/21 07:52:37;;;;;;;3.50;1.70;;;;;;;;;;105854;1304;33690;-32
2022/09/21 07:55:08;;;;;;;4.80;2.20;;;;;;;;;;105896;1309;33935;-32
2022/09/21 08:00:24;;;;;;;4.00;2.00;;;;;;;;;;105968;1310;34086;-32
2022/09/21 08:02:53;;;;;;;3.70;1.80;;;;;;;;;;106021;1311;34506;-32
2022/09/21 08:05:22;;;;;;;4.50;1.80;;;;;;;;;;106006;1305;34378;-32
2022/09/21 08:07:54;;;;;;;4.60;1.90;;;;;;;;;;105914;1305;33591;-32
2022/09/21 08:10:28;;;;;;;4.20;1.80;;;;;;;;;;105905;1304;34389;-32
2022/09/21 08:13:00;;;;;;;4.30;2.00;;;;;;;;;;105926;1304;32291;-32
2022/09/21 08:15:29;;;;;;;3.70;1.70;;;;;;;;;;105910;1309;33173;-32
2022/09/21 08:18:00;;;;;;;4.00;1.80;;;;;;;;;;105972;1311;33079;-32
2022/09/21 08:20:29;;;;;;;3.50;1.80;;;;;;;;;;106058;1304;33896;-32
2022/09/21 08:22:59;;;;;;;3.80;1.90;;;;;;;;;;106072;1307;33262;-32
2022/09/21 08:25:31;;;;;;;4.20;1.70;;;;;;;;;;106099;1305;34473;-32
2022/09/21 08:28:00;;;;;;;3.70;1.80;;;;;;;;;;106114;1305;34530;-32
2022/09/21 08:30:30;;;;;;;4.50;1.80;;;;;;;;;;105981;1304;34343;-32
2022/09/21 08:32:59;;;;;;;4.80;1.90;;;;;;;;;;105869;1309;34372;-32
2022/09/21 08:35:29;;;;;;;3.60;1.80;;;;;;;;;;105879;1307;34223;-32
2022/09/21 08:37:58;;;;;;;3.20;1.50;;;;;;;;;;105843;1307;33973;-32
2022/09/21 08:40:28;;;;;;;4.00;1.60;;;;;;;;;;105965;1307;33665;-32
2022/09/21 08:42:59;;;;;;;4.40;1.60;;;;;;;;;;105810;1305;34319;-32
2022/09/21 08:45:32;;;;;;;3.70;1.60;;;;;;;;;;106063;1304;34018;-32
2022/09/21 08:48:06;;;;;;;3.70;1.60;;;;;;;;;;106075;1304;33876;-32
2022/09/21 08:50:37;;;;;;;3.60;1.80;;;;;;;;;;105980;1304;33850;-32
2022/09/21 08:53:08;;;;;;;4.10;1.70;;;;;;;;;;105831;1310;33903;-32
2022/09/21 08:55:38;;;;;;;4.00;1.70;;;;;;;;;;105842;1307;34415;-32
2022/09/21 08:58:15;;;;;;;4.30;1.80;;;;;;;;;;105757;1307;34125;-33
2022/09/21 09:00:46;;;;;;;3.40;1.60;;;;;;;;;;105793;1307;33950;-32
2022/09/21 09:03:26;;;;;;;3.40;1.70;;;;;;;;;;105905;1310;34075;-32
2022/09/21 09:06:01;;;;;;;3.60;1.60;;;;;;;;;;105866;1300;34369;-34
2022/09/21 09:08:48;;;;;;;3.40;1.60;;;;;;;;;;105990;1307;34225;-33
2022/09/21 09:11:24;;;;;;;4.40;1.80;;;;;;;;;;105875;1303;33473;-34
2022/09/21 09:14:10;;;;;;;3.80;1.90;;;;;;;;;;105725;1304;33857;-33
2022/09/21 09:16:46;;;;;;;3.50;1.70;;;;;;;;;;105867;1304;33994;-32
2022/09/21 09:19:19;;;;;;;3.70;1.50;;;;;;;;;;105985;1305;33961;-33
2022/09/21 09:21:49;;;;;;;4.00;1.40;;;;;;;;;;105930;1307;33478;-32
2022/09/21 09:24:22;;;;;;;3.10;1.50;;;;;;;;;;105964;1308;33831;-32
2022/09/21 09:26:53;;;;;;;3.60;1.50;;;;;;;;;;106013;1304;34183;-33
2022/09/21 09:29:26;;;;;;;3.20;1.50;;;;;;;;;;106064;1302;33954;-32
2022/09/21 09:31:55;;;;;;;3.30;1.40;;;;;;;;;;105992;1310;33426;-33
2022/09/21 09:34:29;;;;;;;3.90;1.60;;;;;;;;;;105679;1307;33581;-33
2022/09/21 09:37:02;;;;;;;3.30;1.40;;;;;;;;;;105875;1309;33964;-32
2022/09/21 09:39:32;;;;;;;3.40;1.40;;;;;;;;;;105801;1306;33569;-33
2022/09/21 09:42:11;;;;;;;3.60;1.60;;;;;;;;;;105893;1303;34278;-32
2022/09/21 09:44:52;;;;;;;3.30;1.40;;;;;;;;;;105634;1306;33838;-31
2022/09/21 09:47:26;;;;;;;2.80;1.20;;;;;;;;;;105618;1307;34288;-31
2022/09/21 09:50:00;;;;;;;3.90;1.50;;;;;;;;;;105710;1306;33511;-32
2022/09/21 09:52:32;;;;;;;3.60;1.30;;;;;;;;;;105809;1307;33137;-31
2022/09/21 09:55:10;;;;;;;3.70;1.70;;;;;;;;;;105811;1307;34184;-32
2022/09/21 09:57:39;;;;;;;2.50;1.30;;;;;;;;;;105738;1310;32603;-34
2022/09/21 10:00:17;;;;;;;2.70;1.20;;;;;;;;;;105846;1306;33588;-32
2022/09/21 10:02:48;;;;;;;2.90;1.30;;;;;;;;;;105617;1307;34221;-33
2022/09/21 10:05:22;;;;;;;3.70;1.30;;;;;;;;;;105630;1306;34286;-32
2022/09/21 10:07:51;;;;;;;3.50;1.70;;;;;;;;;;105793;1305;33346;-32
2022/09/21 10:10:29;;;;;;;2.90;1.30;;;;;;;;;;105803;1306;34340;-32
2022/09/21 10:13:02;;;;;;;3.20;1.20;;;;;;;;;;105725;1307;33884;-33
2022/09/21 10:15:30;;;;;;;;;;;;;;;;;;105705;1310;33794;-34
2022/09/21 10:18:02;;;;;;;2.70;1.20;;;;;;;;;;105608;1310;32833;-31
2022/09/21 10:20:32;;;;;;;5.60;1.40;;;;;;;;;;105671;1305;34169;-31
2022/09/21 10:23:02;;;;;;;2.70;1.30;;;;;;;;;;105625;1308;33821;-33
2022/09/21 10:25:31;;;;;;;2.60;1.20;;;;;;;;;;105880;1310;32261;-32
2022/09/21 10:28:01;;;;;;;3.80;1.20;;;;;;;;;;105898;1308;34083;-32
2022/09/21 10:30:33;;;;;;;3.70;1.30;;;;;;;;;;105941;1310;32484;-32
2022/09/21 10:33:05;;;;;;;2.60;1.20;;;;;;;;;;105853;1305;33862;-32
2022/09/21 10:35:48;;;;;;;2.60;1.20;;;;;;;;;;105835;1307;33203;-32
2022/09/21 10:38:18;;;;;;;2.50;1.10;;;;;;;;;;105910;1310;33231;-32
2022/09/21 10:40:48;;;;;;;2.90;1.30;;;;;;;;;;105840;1309;33586;-32
2022/09/21 10:43:28;;;;;;;2.20;1.00;;;;;;;;;;105932;1308;33773;-32
2022/09/21 10:45:57;;;;;;;2.50;1.20;;;;;;;;;;106000;1304;33876;-33
2022/09/21 10:48:28;;;;;;;3.30;1.30;;;;;;;;;;105972;1307;32073;-32
2022/09/21 10:51:00;;;;;;;3.10;1.20;;;;;;;;;;105893;1303;33596;-31
2022/09/21 10:53:30;;;;;;;3.60;1.30;;;;;;;;;;105713;1304;33887;-32
2022/09/21 10:56:02;;;;;;;3.30;1.10;;;;;;;;;;105619;1307;33206;-31
2022/09/21 10:58:32;;;;;;;4.00;1.20;;;;;;;;;;105516;1311;229832;-31
2022/09/21 11:01:11;;;;;;;3.10;1.20;;;;;;;;;;105720;1305;33244;-33
2022/09/21 11:03:47;;;;;;;2.20;1.00;;;;;;;;;;105841;1304;34049;-32
2022/09/21 11:06:18;;;;;;;4.00;1.20;;;;;;;;;;105879;1304;33637;-32
2022/09/21 11:08:50;;;;;;;3.00;1.00;;;;;;;;;;105776;1305;33921;-32
2022/09/21 11:11:26;;;;;;;3.20;1.30;;;;;;;;;;105823;1304;33956;-32
2022/09/21 11:14:00;;;;;;;2.40;1.00;;;;;;;;;;105734;1304;33906;-32
2022/09/21 11:16:33;;;;;;;3.00;1.10;;;;;;;;;;105686;1309;33985;-31
2022/09/21 11:19:01;;;;;;;;;;;;;;;;;;105578;1305;33454;-31
2022/09/21 11:21:35;;;;;;;2.50;1.20;;;;;;;;;;105610;1309;34042;-31
2022/09/21 11:24:12;;;;;;;2.30;1.10;;;;;;;;;;105752;1303;33963;-32
2022/09/21 11:26:44;;;;;;;3.90;1.20;;;;;;;;;;105811;1304;36153;-31
2022/09/21 11:29:16;;;;;;;2.40;0.90;;;;;;;;;;105821;1304;33734;-31
2022/09/21 11:31:54;;;;;;;3.00;1.20;;;;;;;;;;105896;1305;33275;-33
2022/09/21 11:34:30;;;;;;;2.50;1.00;;;;;;;;;;105663;1305;34129;-32
2022/09/21 11:37:09;;;;;;;2.40;1.10;;;;;;;;;;105755;1304;34102;-32
2022/09/21 11:39:45;;;;;;;2.80;1.00;;;;;;;;;;105649;1305;33852;-32
2022/09/21 11:42:19;;;;;;;2.90;1.10;;;;;;;;;;105666;1311;33477;-32
2022/09/21 11:44:48;;;;;;;;;;;;;;;;;;105849;1303;33964;-32
2022/09/21 11:47:36;;;;;;;2.10;0.90;;;;;;;;;;105848;1307;34385;-31
2022/09/21 11:50:14;;;;;;;2.10;0.90;;;;;;;;;;105713;1308;33556;-32
2022/09/21 11:52:50;;;;;;;2.40;1.00;;;;;;;;;;105800;1303;33970;-32
2022/09/21 11:55:32;;;;;;;3.10;1.10;;;;;;;;;;105622;1306;34278;-32
2022/09/21 11:58:09;;;;;;;2.30;0.90;;;;;;;;;;105800;1307;33888;-32
2022/09/21 12:00:44;;;;;;;2.10;0.80;;;;;;;;;;105581;1307;33955;-32
2022/09/21 12:03:22;;;;;;;2.40;0.90;;;;;;;;;;105628;1305;33442;-32
2022/09/21 12:05:59;;;;;;;2.30;1.00;;;;;;;;;;105810;1305;33891;-32
2022/09/21 12:08:41;;;;;;;2.50;1.00;;;;;;;;;;105633;1306;33957;-32
2022/09/21 12:11:15;;;;;;;2.50;1.10;;;;;;;;;;105618;1309;33483;-32
2022/09/21 12:13:50;;;;;;;2.40;0.80;;;;;;;;;;105770;1303;34265;-32
2022/09/21 12:16:24;;;;;;;2.40;0.90;;;;;;;;;;105650;1304;34009;-32
2022/09/21 12:18:57;;;;;;;2.50;0.90;;;;;;;;;;105726;1304;33962;-32
2022/09/21 12:21:29;;;;;;;1.60;0.80;;;;;;;;;;105741;1307;33362;-32
2022/09/21 12:24:01;;;;;;;2.20;0.90;;;;;;;;;;105550;1309;33504;-32
2022/09/21 12:26:32;;;;;;;2.00;0.90;;;;;;;;;;105640;1306;33964;-32
2022/09/21 12:29:02;;;;;;;2.90;1.10;;;;;;;;;;105726;1304;35145;-32
2022/09/21 12:31:35;;;;;;;2.50;0.90;;;;;;;;;;105634;1306;33971;-32
2022/09/21 12:34:08;;;;;;;2.20;1.00;;;;;;;;;;105672;1307;33891;-32
2022/09/21 12:36:40;;;;;;;2.30;0.80;;;;;;;;;;105833;1310;33378;-32
2022/09/21 12:39:13;;;;;;;2.00;0.90;;;;;;;;;;105621;1300;33745;-32
2022/09/21 12:41:47;;;;;;;1.80;0.90;;;;;;;;;;105709;1304;34253;-32
2022/09/21 12:44:20;;;;;;;2.60;1.10;;;;;;;;;;105691;1304;33879;-32
2022/09/21 12:46:52;;;;;;;1.50;0.90;;;;;;;;;;105730;1303;33866;-32
2022/09/21 12:49:25;;;;;;;2.10;1.00;;;;;;;;;;105819;1310;33546;-32
2022/09/21 12:51:55;;;;;;;2.50;1.10;;;;;;;;;;105813;1304;34351;-32
2022/09/21 12:54:28;;;;;;;2.00;0.80;;;;;;;;;;105730;1307;33762;-32
2022/09/21 12:57:03;;;;;;;2.00;0.80;;;;;;;;;;105716;1304;33779;-32
2022/09/21 12:59:37;;;;;;;2.70;0.90;;;;;;;;;;105646;1305;33932;-32
2022/09/21 13:02:15;;;;;;;2.30;1.00;;;;;;;;;;105712;1304;33865;-32
2022/09/21 13:04:52;;;;;;;2.90;0.70;;;;;;;;;;105709;1307;33931;-32
2022/09/21 13:07:31;;;;;;;1.90;0.80;;;;;;;;;;105743;1307;34174;-32
2022/09/21 13:10:07;;;;;;;1.70;0.70;;;;;;;;;;105766;1307;33574;-32
2022/09/21 13:12:40;;;;;;;2.70;1.10;;;;;;;;;;105783;1307;33348;-32
2022/09/21 13:15:14;;;;;;;1.70;0.70;;;;;;;;;;105802;1303;33890;-32
2022/09/21 13:17:45;;;;;;;2.00;0.80;;;;;;;;;;105665;1304;33855;-32
2022/09/21 13:20:18;;;;;;;2.00;0.70;;;;;;;;;;105652;1306;34310;-32
2022/09/21 13:22:58;;;;;;;2.20;0.90;;;;;;;;;;105746;1310;33349;-32
2022/09/21 13:25:28;;;;;;;2.00;0.80;;;;;;;;;;105629;1304;34045;-32
2022/09/21 13:28:03;;;;;;;2.30;0.80;;;;;;;;;;105812;1303;33592;-32
2022/09/21 13:30:34;;;;;;;2.40;0.80;;;;;;;;;;105795;1307;33599;-32
2022/09/21 13:33:04;;;;;;;2.80;0.70;;;;;;;;;;105758;1303;34196;-32
2022/09/21 13:36:01;;;;;;;3.70;0.90;;;;;;;;;;105806;1304;33109;-32
2022/09/21 13:38:32;;;;;;;2.90;0.80;;;;;;;;;;105693;1307;33228;-32
2022/09/21 13:41:03;;;;;;;3.80;1.20;;;;;;;;;;105613;1310;33868;-32
2022/09/21 13:43:46;;;;;;;4.20;1.60;;;;;;;;;;105744;1304;33949;-32
2022/09/21 13:46:33;;;;;;;4.20;1.90;;;;;;;;;;105634;1304;33947;-32
2022/09/21 13:49:05;;;;;;;3.70;2.10;;;;;;;;;;105615;1306;33878;-32
2022/09/21 13:51:49;;;;;;;4.10;2.30;;;;;;;;;;105640;1306;33846;-32
2022/09/21 13:54:22;;;;;;;5.80;2.20;;;;;;;;;;105782;1306;33165;-32
2022/09/21 13:57:03;;;;;;;4.30;2.30;;;;;;;;;;105630;1304;34149;-32
2022/09/21 13:59:34;;;;;;;3.80;2.10;;;;;;;;;;105710;1304;33843;-32
2022/09/21 14:02:09;;;;;;;4.60;2.10;;;;;;;;;;105693;1304;33991;-32
2022/09/21 14:04:38;;;;;;;5.50;2.70;;;;;;;;;;105610;1305;33388;-32
2022/09/21 14:07:08;;;;;;;4.80;2.40;;;;;;;;;;105689;1303;34055;-32
2022/09/21 14:09:41;;;;;;;4.00;2.50;;;;;;;;;;105645;1307;34392;-32
2022/09/21 14:12:18;;;;;;;4.30;2.20;;;;;;;;;;105659;1306;33915;-32
2022/09/21 14:15:11;;;;;;;4.20;2.00;;;;;;;;;;105755;1304;34245;-32
2022/09/21 14:17:40;;;;;;;5.50;2.00;;;;;;;;;;105617;1307;36498;-32
2022/09/21 14:20:23;;;;;;;3.80;2.10;;;;;;;;;;105686;1304;33897;-32
2022/09/21 14:23:09;;;;;;;4.00;2.10;;;;;;;;;;105696;1304;34080;-32
2022/09/21 14:25:52;;;;;;;4.70;2.20;;;;;;;;;;105740;1304;33868;-32
2022/09/21 14:28:28;;;;;;;3.30;1.80;;;;;;;;;;105678;1306;33607;-32
2022/09/21 14:31:00;;;;;;;3.70;1.70;;;;;;;;;;105628;1306;33290;-32
2022/09/21 14:33:38;;;;;;;4.10;1.90;;;;;;;;;;105803;1306;33097;-32
2022/09/21 14:36:08;;;;;;;3.80;1.80;;;;;;;;;;105815;1310;21593;-32
2022/09/21 14:38:41;;;;;;;3.50;1.60;;;;;;;;;;107544;1306;21395;-32
2022/09/21 14:41:09;;;;;;;;;;;;;;;;;;106416;1303;22959;-32
2022/09/21 14:43:40;;;;;;;4.50;1.80;;;;;;;;;;105842;1303;21492;-32
2022/09/21 14:46:16;;;;;;;3.70;1.40;;;;;;;;;;105809;1311;24400;-32
2022/09/21 14:48:50;;;;;;;4.60;1.70;;;;;;;;;;106018;1304;21701;-32
2022/09/21 14:51:23;;;;;;;4.40;1.80;;;;;;;;;;106173;1304;24415;-32
2022/09/21 14:54:09;;;;;;;4.10;1.50;;;;;;;;;;106165;1310;21963;-32
2022/09/21 14:56:50;;;;;;;4.00;1.60;;;;;;;;;;106156;1304;23042;-31
2022/09/21 14:59:28;;;;;;;3.80;1.50;;;;;;;;;;106034;1304;21524;-31
2022/09/21 15:01:59;;;;;;;3.70;1.40;;;;;;;;;;106013;1307;21524;-31
2022/09/21 15:04:33;;;;;;;3.50;1.30;;;;;;;;;;106046;1304;21547;-31
2022/09/21 15:13:10;;;;;;;3.60;1.80;;;;;;;;;;106131;1310;21572;-31
2022/09/21 15:15:42;;;;;;;2.80;1.10;;;;;;;;;;106203;1310;21483;-31